Time;durP1;ratioP1;P1;durP2;ratioP2;P2;SDS_P1;SDS_P2;PMS_P1;PMS_P2;Temp;Humidity;BMP_temperature;BMP_pressure;BME280_temperature;BME280_humidity;BME280_pressure;Samples;Min_cycle;Max_cycle;Signal;HPM_P1;HPM_P2
2023/07/03 00:00:25;;;;;;;3.00;2.80;;;21.40;99.90;;;;;;5051416;28;20184;-83
2023/07/03 00:02:57;;;;;;;2.50;2.30;;;21.40;99.90;;;;;;5033139;28;20184;-83
2023/07/03 00:05:23;;;;;;;2.77;2.57;;;21.50;99.90;;;;;;5031883;28;20680;-83
2023/07/03 00:07:52;;;;;;;3.70;3.20;;;21.40;99.90;;;;;;5045143;28;20215;-84
2023/07/03 00:11:01;;;;;;;2.80;2.60;;;21.30;99.90;;;;;;4984901;28;20242;-83
2023/07/03 00:13:39;;;;;;;2.77;2.57;;;21.30;99.90;;;;;;5029750;28;20278;-83
2023/07/03 00:16:11;;;;;;;3.53;2.60;;;21.20;99.90;;;;;;5048472;28;20179;-83
2023/07/03 00:18:38;;;;;;;3.10;2.80;;;21.10;99.90;;;;;;5030973;28;20175;-84
2023/07/03 00:21:26;;;;;;;2.60;2.40;;;21.20;99.90;;;;;;5038493;28;20180;-85
2023/07/03 00:23:55;;;;;;;3.27;2.97;;;21.20;99.90;;;;;;5037108;28;20213;-83
2023/07/03 00:26:22;;;;;;;3.43;2.90;;;21.10;99.90;;;;;;5058131;22;20262;-83
2023/07/03 00:28:51;;;;;;;2.80;2.60;;;21.10;99.90;;;;;;5031367;28;20184;-84
2023/07/03 00:31:29;;;;;;;2.70;2.50;;;21.10;99.90;;;;;;5052914;28;20243;-83
2023/07/03 00:34:03;;;;;;;2.90;2.47;;;20.80;99.90;;;;;;5058815;28;20186;-85
2023/07/03 00:36:33;;;;;;;2.43;2.33;;;20.90;99.90;;;;;;5007678;28;20196;-83
2023/07/03 00:39:14;;;;;;;2.80;2.60;;;20.90;99.90;;;;;;5025428;22;20207;-84
2023/07/03 00:44:23;;;;;;;3.73;2.80;;;20.70;99.90;;;;;;5065789;26;20222;-85
2023/07/03 00:47:23;;;;;;;2.70;2.50;;;20.70;99.90;;;;;;5047523;28;20278;-84
2023/07/03 00:49:50;;;;;;;2.50;2.40;;;20.70;99.90;;;;;;5046751;28;20179;-83
2023/07/03 00:52:16;;;;;;;3.47;2.70;;;20.70;99.90;;;;;;5059962;23;20668;-83
2023/07/03 00:54:44;;;;;;;2.80;2.60;;;20.70;99.90;;;;;;5043315;22;20228;-83
2023/07/03 00:57:14;;;;;;;2.90;2.70;;;20.80;99.90;;;;;;5053712;28;20632;-84
2023/07/03 00:59:53;;;;;;;2.40;2.30;;;20.80;99.90;;;;;;5042441;28;20279;-82
2023/07/03 01:02:46;;;;;;;2.87;2.67;;;20.90;99.90;;;;;;5042784;28;20648;-83
2023/07/03 01:05:24;;;;;;;3.17;2.53;;;20.80;99.90;;;;;;5022038;28;20230;-83
2023/07/03 01:07:53;;;;;;;3.00;2.80;;;20.80;99.90;;;;;;5042785;28;20175;-83
2023/07/03 01:10:24;;;;;;;2.90;2.80;;;20.80;99.90;;;;;;5041298;28;20327;-84
2023/07/03 01:12:57;;;;;;;2.90;2.70;;;20.80;99.90;;;;;;5024120;28;20192;-85
2023/07/03 01:15:29;;;;;;;2.90;2.70;;;20.80;99.90;;;;;;5018226;28;20179;-83
2023/07/03 01:18:00;;;;;;;2.63;2.43;;;20.80;99.90;;;;;;5025318;28;20184;-84
2023/07/03 01:20:33;;;;;;;2.60;2.40;;;20.80;99.90;;;;;;5037287;28;20248;-86
2023/07/03 01:23:08;;;;;;;2.63;2.43;;;20.80;99.90;;;;;;5040427;28;20157;-84
2023/07/03 01:25:45;;;;;;;2.80;2.60;;;20.70;99.90;;;;;;5004711;28;20223;-83
2023/07/03 01:28:21;;;;;;;2.87;2.67;;;20.70;99.90;;;;;;5074357;22;20240;-88
2023/07/03 01:30:57;;;;;;;2.63;2.53;;;20.70;99.90;;;;;;5052094;28;20192;-88
2023/07/03 01:33:34;;;;;;;2.70;2.60;;;20.80;99.90;;;;;;5054393;28;20184;-86
2023/07/03 01:36:12;;;;;;;2.70;2.50;;;20.70;99.90;;;;;;5056167;28;20188;-87
2023/07/03 01:38:42;;;;;;;2.90;2.70;;;20.70;99.90;;;;;;5005078;28;20164;-87
2023/07/03 01:41:14;;;;;;;3.13;2.90;;;20.70;99.90;;;;;;5059939;22;20259;-86
2023/07/03 01:43:42;;;;;;;3.53;2.80;;;20.70;99.90;;;;;;5061946;23;20228;-87
2023/07/03 01:46:15;;;;;;;2.87;2.73;;;20.70;99.90;;;;;;5022502;23;20212;-86
2023/07/03 01:48:41;;;;;;;2.80;2.60;;;20.70;99.90;;;;;;5035311;28;20195;-86
2023/07/03 01:51:22;;;;;;;2.27;2.17;;;20.70;99.90;;;;;;5032127;28;20180;-87
2023/07/03 01:54:05;;;;;;;3.23;3.03;;;20.60;99.90;;;;;;5033105;28;20180;-86
2023/07/03 01:56:39;;;;;;;3.00;2.80;;;20.50;99.90;;;;;;5049900;28;20236;-87
2023/07/03 01:59:29;;;;;;;3.20;2.83;;;20.40;99.90;;;;;;5047171;28;20157;-87
2023/07/03 02:02:07;;;;;;;2.83;2.63;;;20.40;99.90;;;;;;5044045;28;20157;-87
2023/07/03 02:05:07;;;;;;;3.20;2.90;;;20.30;99.90;;;;;;5041315;28;20188;-87
2023/07/03 02:07:35;;;;;;;4.07;2.50;;;20.30;99.90;;;;;;5045068;28;20169;-87
2023/07/03 02:10:05;;;;;;;2.80;2.60;;;20.20;99.90;;;;;;5056631;28;20187;-88
2023/07/03 02:12:33;;;;;;;2.73;2.53;;;20.20;99.90;;;;;;5063394;22;20240;-87
2023/07/03 02:15:13;;;;;;;2.70;2.50;;;20.30;99.90;;;;;;5035154;28;20215;-87
2023/07/03 02:17:46;;;;;;;2.87;2.67;;;20.20;99.90;;;;;;5041864;28;20207;-87
2023/07/03 02:20:14;;;;;;;3.00;2.80;;;20.20;99.90;;;;;;5043140;28;20149;-88
2023/07/03 02:22:47;;;;;;;2.60;2.40;;;20.20;99.90;;;;;;5060328;28;20172;-87
2023/07/03 02:25:17;;;;;;;2.60;2.50;;;20.20;99.90;;;;;;5027584;28;20195;-87
2023/07/03 02:27:50;;;;;;;2.90;2.80;;;20.00;99.90;;;;;;5059571;28;20224;-89
2023/07/03 02:30:19;;;;;;;3.30;3.10;;;20.00;99.90;;;;;;5059760;28;20177;-87
2023/07/03 02:32:47;;;;;;;3.10;2.83;;;19.90;99.90;;;;;;5048858;22;20232;-86
2023/07/03 02:35:13;;;;;;;2.63;2.50;;;19.90;99.90;;;;;;5030428;28;20546;-86
2023/07/03 02:37:48;;;;;;;4.33;2.90;;;19.80;99.90;;;;;;5056535;22;20263;-86
2023/07/03 02:40:16;;;;;;;3.17;2.87;;;19.90;99.90;;;;;;5034032;28;20253;-87
2023/07/03 02:42:54;;;;;;;3.03;2.80;;;19.80;99.90;;;;;;5035004;28;20196;-87
2023/07/03 02:45:24;;;;;;;2.90;2.70;;;19.80;99.90;;;;;;5035848;28;20200;-87
2023/07/03 02:47:49;;;;;;;3.20;3.00;;;19.80;99.90;;;;;;5050975;22;20224;-87
2023/07/03 02:50:25;;;;;;;2.83;2.63;;;19.80;99.90;;;;;;5040313;28;20172;-87
2023/07/03 02:53:33;;;;;;;2.90;2.70;;;19.80;99.90;;;;;;5026580;22;20186;-87
2023/07/03 02:58:47;;;;;;;3.13;2.83;;;19.80;99.90;;;;;;5106611;22;20226;-88
2023/07/03 03:01:14;;;;;;;3.00;2.80;;;19.90;99.90;;;;;;4998689;28;20179;-83
2023/07/03 03:04:04;;;;;;;3.50;3.20;;;19.90;99.90;;;;;;4981209;28;20187;-84
2023/07/03 03:06:44;;;;;;;3.20;2.90;;;19.90;99.90;;;;;;4996954;28;20218;-84
2023/07/03 03:09:19;;;;;;;3.20;2.90;;;20.00;99.90;;;;;;4951468;28;20174;-85
2023/07/03 03:11:48;;;;;;;3.00;2.80;;;20.00;99.90;;;;;;4999230;28;20198;-84
2023/07/03 03:14:29;;;;;;;3.00;2.57;;;20.10;99.90;;;;;;4967185;28;20181;-84
2023/07/03 03:17:01;;;;;;;3.43;3.13;;;20.10;99.90;;;;;;5054198;22;20330;-87
2023/07/03 03:19:38;;;;;;;2.90;2.70;;;20.10;99.90;;;;;;5054392;28;20181;-87
2023/07/03 03:22:06;;;;;;;3.17;2.90;;;20.10;99.90;;;;;;5073813;28;20190;-87
2023/07/03 03:24:33;;;;;;;2.93;2.70;;;20.10;99.90;;;;;;5072952;28;20183;-86
2023/07/03 03:27:13;;;;;;;3.30;3.10;;;20.10;99.90;;;;;;5051508;28;20199;-87
2023/07/03 03:29:40;;;;;;;2.87;2.67;;;20.10;99.90;;;;;;5072718;28;20156;-87
2023/07/03 03:32:11;;;;;;;3.43;3.23;;;20.10;99.90;;;;;;5096427;22;20722;-83
2023/07/03 03:34:43;;;;;;;3.03;2.80;;;19.70;99.90;;;;;;5137261;23;20233;-84
2023/07/03 03:37:11;;;;;;;4.63;2.97;;;20.10;99.90;;;;;;5052300;28;20262;-84
2023/07/03 03:39:43;;;;;;;2.80;2.70;;;20.10;99.90;;;;;;5024033;28;20195;-83
2023/07/03 03:42:22;;;;;;;3.20;3.00;;;20.20;99.90;;;;;;5097189;22;20191;-88
2023/07/03 03:45:19;;;;;;;3.90;3.57;;;19.10;99.90;;;;;;5051975;28;20208;-87
2023/07/03 03:50:30;;;;;;;3.47;3.17;;;20.20;99.90;;;;;;5050695;22;20231;-87
2023/07/03 03:53:01;;;;;;;3.17;2.97;;;20.20;99.90;;;;;;5033926;28;20172;-88
2023/07/03 03:55:30;;;;;;;3.40;3.10;;;20.00;99.90;;;;;;5050430;28;20185;-88
2023/07/03 03:57:57;;;;;;;3.37;3.17;;;20.00;99.90;;;;;;5056622;28;20173;-88
2023/07/03 04:00:26;;;;;;;4.37;3.40;;;20.10;99.90;;;;;;5073294;22;20233;-83
2023/07/03 04:03:00;;;;;;;3.20;3.00;;;20.10;99.90;;;;;;5003646;28;20246;-84
2023/07/03 04:05:29;;;;;;;3.60;3.30;;;20.20;99.90;;;;;;5060977;22;20603;-85
2023/07/03 04:08:12;;;;;;;4.00;3.70;;;20.60;99.90;;;;;;5031175;28;20220;-85
2023/07/03 04:10:44;;;;;;;3.70;3.40;;;20.00;99.90;;;;;;5033571;28;20193;-83
2023/07/03 04:13:16;;;;;;;3.80;3.33;;;20.30;99.90;;;;;;5167774;22;20228;-86
2023/07/03 04:16:17;;;;;;;3.40;3.20;;;20.30;99.90;;;;;;5032764;28;20632;-83
2023/07/03 04:18:46;;;;;;;3.83;3.50;;;20.40;99.90;;;;;;4969777;29;20187;-83
2023/07/03 04:21:16;;;;;;;3.90;3.60;;;20.50;99.90;;;;;;4953433;29;20179;-85
2023/07/03 04:23:43;;;;;;;3.97;3.57;;;20.50;99.90;;;;;;4951678;29;20547;-83
2023/07/03 04:26:13;;;;;;;4.00;3.43;;;20.50;99.90;;;;;;4952096;29;20238;-84
2023/07/03 04:28:43;;;;;;;3.60;3.40;;;20.50;99.90;;;;;;5014259;22;20237;-85
2023/07/03 04:31:14;;;;;;;3.90;3.57;;;20.60;99.90;;;;;;4987668;28;20524;-84
2023/07/03 04:33:45;;;;;;;3.83;3.53;;;20.60;99.90;;;;;;5025063;28;20181;-84
2023/07/03 04:36:17;;;;;;;3.40;3.20;;;20.50;99.90;;;;;;4984078;28;20190;-84
2023/07/03 04:39:18;;;;;;;3.77;3.47;;;20.50;99.90;;;;;;5032921;28;20169;-84
2023/07/03 04:41:49;;;;;;;4.47;4.07;;;20.50;99.90;;;;;;5032578;28;20603;-84
2023/07/03 04:44:15;;;;;;;3.60;3.40;;;20.50;99.90;;;;;;4970720;28;20266;-85
2023/07/03 04:46:43;;;;;;;3.97;3.67;;;20.50;99.90;;;;;;5004402;28;20229;-84
2023/07/03 04:49:11;;;;;;;3.60;3.30;;;20.60;99.90;;;;;;5011570;28;20206;-84
2023/07/03 04:51:39;;;;;;;3.73;3.53;;;20.60;99.90;;;;;;5031232;28;20665;-83
2023/07/03 04:54:05;;;;;;;3.87;3.57;;;20.60;99.90;;;;;;5007348;28;20173;-83
2023/07/03 04:56:34;;;;;;;3.63;3.33;;;20.70;99.90;;;;;;5006982;28;20197;-83
2023/07/03 04:59:00;;;;;;;4.00;3.63;;;20.70;99.90;;;;;;5006197;28;20272;-83
2023/07/03 05:01:25;;;;;;;3.90;3.60;;;20.90;99.90;;;;;;5011420;28;20181;-83
2023/07/03 05:03:54;;;;;;;4.50;3.63;;;20.90;99.90;;;;;;5032350;28;20272;-83
2023/07/03 05:06:20;;;;;;;3.63;3.43;;;20.90;99.90;;;;;;5015351;28;20205;-82
2023/07/03 05:08:49;;;;;;;3.83;3.53;;;20.90;99.90;;;;;;5008492;28;20566;-82
2023/07/03 05:11:20;;;;;;;4.47;4.07;;;20.80;99.90;;;;;;5022600;28;20236;-83
2023/07/03 05:13:48;;;;;;;3.87;3.53;;;20.80;99.90;;;;;;5007134;28;20177;-83
2023/07/03 05:16:14;;;;;;;5.47;3.70;;;20.80;99.90;;;;;;5005213;28;20204;-83
2023/07/03 05:18:40;;;;;;;4.23;3.93;;;20.90;99.90;;;;;;5005667;28;20247;-84
2023/07/03 05:21:06;;;;;;;4.07;3.80;;;20.90;99.90;;;;;;5021264;28;20169;-78
2023/07/03 05:23:33;;;;;;;3.87;3.57;;;20.90;99.90;;;;;;5021723;28;20173;-81
2023/07/03 05:26:02;;;;;;;4.83;3.83;;;20.90;99.90;;;;;;5022095;28;20209;-86
2023/07/03 05:28:29;;;;;;;4.47;3.67;;;21.00;99.90;;;;;;5001483;28;20233;-85
2023/07/03 05:30:57;;;;;;;5.03;4.37;;;21.00;99.90;;;;;;4997522;28;20288;-85
2023/07/03 05:33:25;;;;;;;4.13;3.73;;;21.00;99.90;;;;;;5002280;28;20179;-83
2023/07/03 05:35:53;;;;;;;4.27;3.90;;;21.00;99.90;;;;;;5001982;28;20196;-79
2023/07/03 05:38:19;;;;;;;3.97;3.67;;;21.00;99.90;;;;;;5002319;28;20174;-80
2023/07/03 05:40:46;;;;;;;4.23;3.87;;;21.10;99.90;;;;;;4979113;28;20205;-81
2023/07/03 05:43:13;;;;;;;4.50;4.10;;;21.10;99.90;;;;;;4970832;28;20182;-82
2023/07/03 05:45:40;;;;;;;5.67;4.37;;;21.20;99.90;;;;;;5004585;28;20198;-83
2023/07/03 05:48:06;;;;;;;4.33;4.00;;;21.20;99.90;;;;;;4987244;28;20540;-76
2023/07/03 05:50:32;;;;;;;3.80;3.40;;;21.20;99.90;;;;;;5008709;28;20178;-84
2023/07/03 05:52:58;;;;;;;4.33;4.03;;;21.20;99.90;;;;;;4984976;28;20225;-86
2023/07/03 05:55:27;;;;;;;4.00;3.60;;;21.40;99.90;;;;;;4981224;28;20189;-84
2023/07/03 05:57:53;;;;;;;4.43;4.13;;;21.40;99.90;;;;;;4980127;28;20193;-84
2023/07/03 06:00:19;;;;;;;4.33;4.00;;;21.40;99.90;;;;;;4990518;28;20261;-84
2023/07/03 06:02:46;;;;;;;4.77;3.93;;;21.50;99.90;;;;;;4985338;28;20264;-84
2023/07/03 06:05:12;;;;;;;4.10;3.77;;;21.50;99.90;;;;;;5001824;28;20289;-84
2023/07/03 06:07:39;;;;;;;4.57;3.90;;;21.70;99.90;;;;;;5001814;28;20181;-84
2023/07/03 06:10:06;;;;;;;4.40;4.07;;;21.70;99.90;;;;;;4980571;28;20575;-84
2023/07/03 06:12:32;;;;;;;4.37;4.00;;;21.80;99.90;;;;;;5000545;28;20257;-85
2023/07/03 06:15:00;;;;;;;4.23;3.93;;;21.80;99.90;;;;;;4983457;28;20183;-83
2023/07/03 06:17:27;;;;;;;4.57;4.07;;;21.80;99.90;;;;;;5007484;28;20190;-85
2023/07/03 06:19:54;;;;;;;5.23;3.77;;;21.70;99.90;;;;;;4986291;28;20185;-84
2023/07/03 06:22:21;;;;;;;4.20;3.80;;;21.70;99.90;;;;;;5001626;28;20233;-84
2023/07/03 06:24:51;;;;;;;5.13;4.27;;;21.70;99.90;;;;;;4987693;28;20214;-85
2023/07/03 06:27:21;;;;;;;4.00;3.70;;;22.00;99.90;;;;;;5013738;28;20174;-87
2023/07/03 06:29:48;;;;;;;6.07;5.47;;;21.80;99.90;;;;;;5004098;28;20201;-83
2023/07/03 06:32:31;;;;;;;4.50;4.10;;;21.80;99.90;;;;;;5003812;28;20170;-82
2023/07/03 06:35:05;;;;;;;4.23;3.90;;;21.70;99.90;;;;;;5029260;23;20166;-85
2023/07/03 06:37:34;;;;;;;3.93;3.63;;;21.60;99.90;;;;;;5037369;28;20193;-85
2023/07/03 06:40:00;;;;;;;4.43;3.93;;;21.50;99.90;;;;;;5062363;22;20240;-83
2023/07/03 06:42:32;;;;;;;4.40;4.00;;;21.40;99.90;;;;;;5058495;28;20180;-83
2023/07/03 06:45:04;;;;;;;4.40;4.10;;;22.10;99.90;;;;;;5035892;23;20224;-82
2023/07/03 06:48:10;;;;;;;5.27;4.37;;;21.20;99.90;;;;;;5069945;28;20229;-84
2023/07/03 06:50:38;;;;;;;4.53;4.13;;;21.10;99.90;;;;;;5062264;28;20168;-85
2023/07/03 06:55:41;;;;;;;4.63;4.23;;;21.00;99.90;;;;;;5077355;28;20219;-85
2023/07/03 06:58:09;;;;;;;4.33;3.93;;;20.90;99.90;;;;;;5077730;28;20231;-86
2023/07/03 07:00:41;;;;;;;5.80;4.40;;;20.80;99.90;;;;;;5075638;28;20164;-85
2023/07/03 07:03:11;;;;;;;5.07;4.23;;;20.80;99.90;;;;;;5076758;28;20168;-86
2023/07/03 07:05:38;;;;;;;5.27;4.27;;;20.70;99.90;;;;;;5061039;28;20212;-85
2023/07/03 07:08:07;;;;;;;4.70;4.27;;;20.80;99.90;;;;;;5057602;28;20176;-88
2023/07/03 07:10:39;;;;;;;4.70;4.23;;;20.70;99.90;;;;;;5073301;22;20248;-86
2023/07/03 07:13:06;;;;;;;5.60;4.63;;;20.80;99.90;;;;;;5025846;28;20168;-87
2023/07/03 07:15:36;;;;;;;5.13;4.63;;;20.90;99.90;;;;;;5035531;28;20180;-86
2023/07/03 07:18:10;;;;;;;5.10;4.70;;;20.90;99.90;;;;;;5035287;28;20685;-85
2023/07/03 07:20:43;;;;;;;5.73;4.43;;;21.00;99.90;;;;;;5040214;28;20182;-85
2023/07/03 07:23:11;;;;;;;5.40;4.63;;;21.00;99.90;;;;;;5056707;28;20169;-86
2023/07/03 07:25:38;;;;;;;5.57;4.80;;;21.00;99.90;;;;;;5054717;28;20545;-85
2023/07/03 07:28:04;;;;;;;7.47;4.50;;;20.90;99.90;;;;;;5051731;28;20180;-88
2023/07/03 07:30:32;;;;;;;5.43;4.50;;;20.80;99.90;;;;;;5029969;28;20248;-87
2023/07/03 07:32:58;;;;;;;4.80;4.40;;;20.90;99.90;;;;;;5049432;28;20165;-88
2023/07/03 07:35:25;;;;;;;5.37;4.87;;;20.90;99.90;;;;;;5033734;28;20189;-85
2023/07/03 07:37:51;;;;;;;7.33;5.17;;;20.90;99.90;;;;;;5030883;28;20273;-86
2023/07/03 07:40:16;;;;;;;4.97;4.47;;;20.90;99.90;;;;;;5042797;28;20178;-87
2023/07/03 07:42:42;;;;;;;5.40;4.90;;;21.00;99.90;;;;;;5047585;28;20172;-86
2023/07/03 07:45:09;;;;;;;5.50;4.83;;;21.00;99.90;;;;;;5025287;28;20299;-86
2023/07/03 07:47:36;;;;;;;5.23;4.73;;;21.10;99.90;;;;;;5028997;28;20356;-87
2023/07/03 07:50:02;;;;;;;5.40;4.90;;;21.10;99.90;;;;;;5031266;28;20263;-87
2023/07/03 07:52:30;;;;;;;6.90;4.73;;;21.20;99.90;;;;;;5045789;28;20714;-85
2023/07/03 07:55:01;;;;;;;7.20;4.80;;;21.20;99.90;;;;;;5029373;28;20184;-85
2023/07/03 07:57:29;;;;;;;5.67;5.10;;;21.30;99.90;;;;;;5044160;22;20717;-86
2023/07/03 08:00:12;;;;;;;5.63;4.70;;;21.40;99.90;;;;;;4993904;28;20189;-86
2023/07/03 08:02:39;;;;;;;5.20;4.77;;;21.50;99.90;;;;;;5020268;28;20189;-85
2023/07/03 08:05:05;;;;;;;4.87;4.40;;;21.40;99.90;;;;;;5028168;28;20212;-88
2023/07/03 08:07:34;;;;;;;5.27;4.10;;;21.50;99.90;;;;;;5017655;28;20209;-87
2023/07/03 08:10:00;;;;;;;4.10;3.87;;;21.40;99.90;;;;;;5026365;28;20227;-87
2023/07/03 08:12:26;;;;;;;4.17;3.87;;;21.50;99.90;;;;;;5023738;28;20214;-88
2023/07/03 08:14:52;;;;;;;4.77;4.37;;;21.60;99.90;;;;;;5006407;28;20202;-88
2023/07/03 08:17:18;;;;;;;4.57;4.17;;;21.60;99.90;;;;;;5020417;28;20206;-86
2023/07/03 08:19:45;;;;;;;4.27;3.87;;;21.80;99.90;;;;;;5003945;28;20574;-87
2023/07/03 08:22:12;;;;;;;4.17;3.83;;;21.70;99.90;;;;;;5008506;28;20637;-86
2023/07/03 08:24:41;;;;;;;3.90;3.60;;;21.60;99.90;;;;;;5022732;28;20699;-86
2023/07/03 08:27:07;;;;;;;4.37;3.97;;;21.50;99.90;;;;;;5019965;28;20267;-86
2023/07/03 08:29:34;;;;;;;4.13;3.83;;;21.50;99.90;;;;;;5020691;28;20200;-85
2023/07/03 08:32:03;;;;;;;3.87;3.50;;;21.50;99.90;;;;;;5024523;28;20169;-86
2023/07/03 08:34:29;;;;;;;4.23;3.93;;;21.40;99.90;;;;;;4985768;28;20526;-87
2023/07/03 08:36:55;;;;;;;4.13;3.83;;;21.40;99.90;;;;;;5022044;28;20175;-87
2023/07/03 08:39:21;;;;;;;3.90;3.60;;;21.20;99.90;;;;;;5018186;28;20184;-87
2023/07/03 08:41:56;;;;;;;4.13;3.83;;;21.20;99.90;;;;;;5023243;28;20244;-86
2023/07/03 08:44:22;;;;;;;3.97;3.63;;;21.10;99.90;;;;;;5025556;28;20164;-87
2023/07/03 08:46:48;;;;;;;4.60;4.20;;;21.10;99.90;;;;;;5027220;28;20201;-86
2023/07/03 08:49:24;;;;;;;4.70;4.30;;;21.10;99.90;;;;;;5012720;28;20211;-85
2023/07/03 08:51:54;;;;;;;6.53;4.50;;;21.30;99.90;;;;;;5017466;28;20157;-87
2023/07/03 08:54:27;;;;;;;4.03;3.73;;;21.40;99.90;;;;;;5000204;28;20177;-87
2023/07/03 08:56:54;;;;;;;7.23;3.50;;;21.30;99.90;;;;;;5019489;28;20153;-88
2023/07/03 08:59:42;;;;;;;4.87;4.40;;;21.30;99.90;;;;;;5035750;28;20264;-88
2023/07/03 09:02:45;;;;;;;4.47;4.03;;;21.30;99.90;;;;;;5038864;28;20199;-90
2023/07/03 09:05:36;;;;;;;4.87;4.10;;;21.60;99.90;;;;;;5035360;28;20218;-89
2023/07/03 09:08:13;;;;;;;4.30;4.00;;;21.60;99.90;;;;;;5033982;28;20192;-92
2023/07/03 09:10:49;;;;;;;4.40;4.00;;;21.50;99.90;;;;;;5051857;28;20191;-91
2023/07/03 09:13:40;;;;;;;4.50;4.10;;;21.60;99.90;;;;;;5035356;28;20168;-91
2023/07/03 09:16:23;;;;;;;4.30;4.00;;;21.50;99.90;;;;;;5031613;28;20196;-86
2023/07/03 09:19:08;;;;;;;4.57;3.70;;;21.40;99.90;;;;;;5016974;28;20184;-86
2023/07/03 09:21:36;;;;;;;5.47;3.63;;;21.30;99.90;;;;;;5051326;28;20224;-91
2023/07/03 09:24:08;;;;;;;5.67;3.70;;;21.30;99.90;;;;;;5025345;28;20356;-93
2023/07/03 09:26:43;;;;;;;4.17;3.83;;;21.10;99.90;;;;;;5058710;28;20188;-85
2023/07/03 09:29:10;;;;;;;3.90;3.50;;;21.20;99.90;;;;;;5038223;28;20179;-86
2023/07/03 09:31:38;;;;;;;3.80;3.50;;;21.00;99.90;;;;;;5037602;28;20176;-88
2023/07/03 09:34:04;;;;;;;4.13;3.73;;;21.00;99.90;;;;;;5057295;28;20187;-88
2023/07/03 09:36:37;;;;;;;3.53;3.33;;;20.90;99.90;;;;;;5059798;28;20156;-87
2023/07/03 09:39:18;;;;;;;3.77;3.47;;;21.00;99.90;;;;;;5054550;28;20176;-85
2023/07/03 09:41:44;;;;;;;3.07;2.87;;;20.90;99.90;;;;;;5030336;28;20180;-86
2023/07/03 09:44:17;;;;;;;3.40;3.17;;;20.90;99.90;;;;;;5055500;28;20173;-86
2023/07/03 09:46:46;;;;;;;3.27;2.97;;;20.90;99.90;;;;;;5057663;28;20207;-86
2023/07/03 09:49:22;;;;;;;3.10;2.90;;;20.90;99.90;;;;;;5053531;28;20203;-87
2023/07/03 09:51:57;;;;;;;3.07;2.87;;;20.90;99.90;;;;;;5038201;28;20180;-89
2023/07/03 09:54:27;;;;;;;3.77;3.17;;;21.00;99.90;;;;;;5052934;28;20188;-90
2023/07/03 09:56:54;;;;;;;3.60;3.30;;;21.00;99.90;;;;;;5018094;28;20180;-85
2023/07/03 09:59:22;;;;;;;3.73;3.43;;;20.90;99.90;;;;;;5034257;28;20217;-90
2023/07/03 10:01:56;;;;;;;4.30;3.73;;;20.60;99.90;;;;;;5011386;28;20232;-91
2023/07/03 10:04:21;;;;;;;4.17;3.77;;;20.50;99.90;;;;;;5028935;28;20148;-91
2023/07/03 10:07:03;;;;;;;4.97;3.77;;;20.60;99.90;;;;;;5027093;28;20229;-92
2023/07/03 10:09:32;;;;;;;10.77;4.63;;;20.70;99.90;;;;;;5012451;28;20173;-88
2023/07/03 10:12:36;;;;;;;4.80;4.30;;;20.90;99.90;;;;;;5016700;28;20185;-86
2023/07/03 10:15:27;;;;;;;5.23;4.73;;;21.00;99.90;;;;;;5036162;28;20245;-85
2023/07/03 10:18:04;;;;;;;5.10;4.60;;;21.00;99.90;;;;;;4992537;28;20181;-87
2023/07/03 10:20:35;;;;;;;5.47;4.97;;;21.20;99.90;;;;;;5024828;28;20613;-86
2023/07/03 10:23:07;;;;;;;5.17;4.77;;;21.30;99.90;;;;;;5024104;28;20341;-87
2023/07/03 10:25:39;;;;;;;5.00;4.60;;;21.30;99.90;;;;;;5006142;28;20668;-87
2023/07/03 10:28:12;;;;;;;4.90;4.40;;;21.40;99.90;;;;;;5025206;28;20177;-85
2023/07/03 10:30:42;;;;;;;4.60;4.20;;;21.10;99.90;;;;;;5005779;28;20177;-87
2023/07/03 10:33:24;;;;;;;4.97;4.27;;;21.10;99.90;;;;;;5022438;28;20169;-87
2023/07/03 10:35:51;;;;;;;4.40;3.97;;;21.20;99.90;;;;;;5023151;28;20173;-86
2023/07/03 10:38:34;;;;;;;5.00;4.33;;;21.20;99.90;;;;;;5008212;28;20520;-87
2023/07/03 10:41:07;;;;;;;5.27;4.43;;;21.10;99.90;;;;;;5006958;28;20180;-85
2023/07/03 10:43:43;;;;;;;4.40;4.00;;;21.10;99.90;;;;;;5026344;28;20189;-85
2023/07/03 10:46:21;;;;;;;4.47;4.07;;;21.20;99.90;;;;;;5007688;28;20223;-85
2023/07/03 10:48:50;;;;;;;4.67;4.20;;;21.20;99.90;;;;;;5027390;28;20169;-85
2023/07/03 10:51:31;;;;;;;4.60;4.07;;;21.10;99.90;;;;;;5026145;28;20188;-85
2023/07/03 10:54:13;;;;;;;5.20;4.70;;;21.10;99.90;;;;;;5024282;28;20161;-85
2023/07/03 10:56:47;;;;;;;5.23;4.37;;;21.10;99.90;;;;;;5023888;28;20268;-85
2023/07/03 10:59:33;;;;;;;4.40;3.93;;;21.10;99.90;;;;;;5036836;28;20244;-88
2023/07/03 11:02:30;;;;;;;5.23;4.43;;;21.20;99.90;;;;;;5003666;28;20200;-85
2023/07/03 11:07:45;;;;;;;5.20;4.30;;;21.20;99.90;;;;;;5073545;28;20235;-87
2023/07/03 11:10:38;;;;;;;5.37;4.63;;;21.10;99.90;;;;;;5085132;22;20255;-82
2023/07/03 11:13:26;;;;;;;4.30;3.90;;;21.10;99.90;;;;;;5042692;28;20181;-82
2023/07/03 11:16:14;;;;;;;4.80;4.40;;;21.20;99.90;;;;;;5043029;28;20179;-82
2023/07/03 11:19:22;;;;;;;5.33;4.50;;;21.20;99.90;;;;;;5024209;28;20180;-82
2023/07/03 11:22:24;;;;;;;6.27;5.67;;;21.10;99.90;;;;;;5033152;28;20152;-82
2023/07/03 11:25:16;;;;;;;6.07;4.93;;;21.10;99.90;;;;;;5059113;28;20170;-82
2023/07/03 11:28:22;;;;;;;5.17;4.73;;;21.30;99.90;;;;;;5042580;28;20189;-83
2023/07/03 11:30:50;;;;;;;4.87;4.47;;;21.30;99.90;;;;;;4980144;28;20202;-88
2023/07/03 11:33:17;;;;;;;4.77;4.37;;;21.30;99.90;;;;;;4977499;28;20258;-84
2023/07/03 11:35:58;;;;;;;5.53;4.97;;;21.50;99.90;;;;;;4979210;29;20168;-82
2023/07/03 11:38:27;;;;;;;5.00;4.50;;;21.50;99.90;;;;;;4963256;29;20194;-84
2023/07/03 11:43:50;;;;;;;6.67;4.77;;;21.50;99.90;;;;;;4232616;26;20232;-85
2023/07/03 11:46:26;;;;;;;5.70;5.20;;;21.30;99.90;;;;;;5033495;28;20217;-83
2023/07/03 11:49:09;;;;;;;6.30;5.20;;;21.40;99.90;;;;;;5020517;28;20153;-83
2023/07/03 11:51:38;;;;;;;5.30;4.80;;;21.50;99.90;;;;;;5038679;28;20178;-85
2023/07/03 11:54:19;;;;;;;8.20;5.13;;;21.60;99.90;;;;;;5016449;28;20158;-85
2023/07/03 11:56:51;;;;;;;5.40;4.77;;;21.70;99.90;;;;;;5029048;28;20173;-83
2023/07/03 11:59:25;;;;;;;5.70;5.20;;;21.80;99.90;;;;;;5007577;28;20264;-82
2023/07/03 12:02:13;;;;;;;5.43;4.93;;;21.70;99.90;;;;;;5027210;28;20141;-83
2023/07/03 12:04:50;;;;;;;6.73;5.63;;;21.70;99.90;;;;;;5028958;28;20173;-82
2023/07/03 12:07:22;;;;;;;6.13;5.23;;;21.50;99.90;;;;;;5016030;28;20185;-83
2023/07/03 12:09:50;;;;;;;6.70;4.97;;;21.20;99.90;;;;;;5022877;28;20177;-82
2023/07/03 12:12:30;;;;;;;5.40;4.67;;;21.30;99.90;;;;;;5024938;28;20177;-81
2023/07/03 12:15:09;;;;;;;5.23;4.67;;;21.20;99.90;;;;;;5033739;28;20617;-82
2023/07/03 12:17:37;;;;;;;6.03;5.43;;;21.30;99.90;;;;;;5025350;28;20157;-82
2023/07/03 12:20:10;;;;;;;7.53;5.47;;;21.20;99.90;;;;;;5006280;28;20188;-84
2023/07/03 12:22:45;;;;;;;6.70;5.30;;;21.20;99.90;;;;;;5021401;28;20176;-82
2023/07/03 12:25:27;;;;;;;6.30;5.40;;;21.30;99.90;;;;;;5022213;28;20201;-83
2023/07/03 12:27:55;;;;;;;5.53;5.03;;;21.20;99.90;;;;;;5002176;28;20187;-82
2023/07/03 12:30:27;;;;;;;6.27;5.30;;;21.20;99.90;;;;;;5003283;28;20254;-81
2023/07/03 12:32:57;;;;;;;7.07;5.77;;;21.10;99.90;;;;;;5022202;28;20185;-84
2023/07/03 12:35:32;;;;;;;6.13;5.27;;;21.10;99.90;;;;;;5024999;28;20178;-81
2023/07/03 12:38:16;;;;;;;6.33;5.20;;;21.10;99.90;;;;;;5007761;28;20200;-84
2023/07/03 12:40:46;;;;;;;6.47;5.83;;;21.00;99.90;;;;;;4992157;28;20188;-82
2023/07/03 12:43:17;;;;;;;5.73;5.23;;;21.00;99.90;;;;;;4990901;28;20255;-82
2023/07/03 12:45:53;;;;;;;5.80;5.13;;;21.00;99.90;;;;;;4985639;28;20224;-82
2023/07/03 12:48:23;;;;;;;6.30;5.70;;;21.10;99.90;;;;;;4990240;28;20177;-84
2023/07/03 12:51:05;;;;;;;7.30;5.80;;;21.10;99.90;;;;;;4995230;28;20171;-84
2023/07/03 12:53:38;;;;;;;5.47;4.80;;;21.10;99.90;;;;;;4990166;28;20197;-84
2023/07/03 12:56:10;;;;;;;6.97;6.00;;;21.20;99.90;;;;;;4990262;28;20190;-85
2023/07/03 12:58:39;;;;;;;6.53;5.50;;;21.10;99.90;;;;;;4992098;28;20167;-82
2023/07/03 13:01:11;;;;;;;6.90;5.23;;;21.10;99.90;;;;;;4997747;28;20181;-82
2023/07/03 13:03:41;;;;;;;6.70;5.57;;;20.40;99.90;;;;;;4996304;28;20270;-82
2023/07/03 13:06:20;;;;;;;7.37;5.67;;;21.00;99.90;;;;;;4986595;28;20218;-83
2023/07/03 13:08:51;;;;;;;8.90;5.97;;;21.10;99.90;;;;;;4984469;28;20217;-84
2023/07/03 13:11:46;;;;;;;6.83;6.13;;;21.00;99.90;;;;;;4989415;28;20242;-87
2023/07/03 13:14:17;;;;;;;9.13;6.50;;;20.90;99.90;;;;;;4989339;28;20170;-83
2023/07/03 13:16:50;;;;;;;7.40;5.93;;;20.90;99.90;;;;;;4984067;28;20170;-82
2023/07/03 13:19:34;;;;;;;6.70;6.00;;;20.90;99.90;;;;;;4966796;28;20175;-83
2023/07/03 13:22:03;;;;;;;7.50;6.00;;;20.90;99.90;;;;;;4980578;28;20150;-83
2023/07/03 13:24:42;;;;;;;7.97;6.37;;;21.00;99.90;;;;;;4966509;28;20182;-85
2023/07/03 13:27:23;;;;;;;7.57;5.67;;;21.00;99.90;;;;;;4975581;28;20202;-85
2023/07/03 13:30:01;;;;;;;7.27;5.80;;;20.90;99.90;;;;;;4989440;28;20166;-82
2023/07/03 13:32:27;;;;;;;6.27;5.67;;;20.90;99.90;;;;;;4988972;28;20166;-83
2023/07/03 13:35:04;;;;;;;7.50;5.77;;;21.00;99.90;;;;;;4979487;28;20607;-83